Time;durP1;ratioP1;P1;durP2;ratioP2;P2;SDS_P1;SDS_P2;PMS_P1;PMS_P2;Temp;Humidity;BMP_temperature;BMP_pressure;BME280_temperature;BME280_humidity;BME280_pressure;Samples;Min_cycle;Max_cycle;Signal;HPM_P1;HPM_P2
2022/09/07 00:00:54;;;;;;;6.87;4.17;;;24.00;99.90;;;;;;4957979;28;20541;-70
2022/09/07 00:03:21;;;;;;;8.80;3.70;;;23.90;99.90;;;;;;4956060;28;20652;-69
2022/09/07 00:05:49;;;;;;;6.07;3.63;;;23.80;99.90;;;;;;4957862;28;20188;-69
2022/09/07 00:08:16;;;;;;;7.67;3.90;;;23.80;99.90;;;;;;4961701;28;20440;-69
2022/09/07 00:10:51;;;;;;;3.70;3.40;;;23.70;99.90;;;;;;4958797;28;20452;-70
2022/09/07 00:13:17;;;;;;;9.07;3.60;;;23.70;99.90;;;;;;4957283;28;20446;-71
2022/09/07 00:15:42;;;;;;;4.67;4.27;;;23.70;99.90;;;;;;4959527;28;20465;-71
2022/09/07 00:18:08;;;;;;;5.10;3.70;;;23.80;99.90;;;;;;4954617;28;20302;-70
2022/09/07 00:20:34;;;;;;;7.80;3.80;;;23.80;99.90;;;;;;4959520;28;20270;-70
2022/09/07 00:22:59;;;;;;;12.03;3.80;;;23.80;99.90;;;;;;4959851;28;20187;-70
2022/09/07 00:25:25;;;;;;;6.67;3.50;;;23.70;99.90;;;;;;4955288;28;20210;-70
2022/09/07 00:27:50;;;;;;;8.73;3.77;;;23.80;99.90;;;;;;4958563;28;20761;-70
2022/09/07 00:30:16;;;;;;;4.20;3.80;;;23.80;99.90;;;;;;4957828;28;20206;-70
2022/09/07 00:32:42;;;;;;;9.03;3.90;;;23.80;99.90;;;;;;4956015;28;20187;-70
2022/09/07 00:35:08;;;;;;;4.40;4.00;;;23.80;99.90;;;;;;4957484;28;20236;-70
2022/09/07 00:37:33;;;;;;;8.30;3.60;;;23.80;99.90;;;;;;4959754;28;20186;-70
2022/09/07 00:39:59;;;;;;;7.17;3.30;;;23.80;99.90;;;;;;4955005;28;20445;-70
2022/09/07 00:42:25;;;;;;;5.13;3.73;;;23.80;99.90;;;;;;4957534;28;20605;-70
2022/09/07 00:44:59;;;;;;;6.10;3.80;;;23.80;99.90;;;;;;4952368;28;21050;-70
2022/09/07 00:47:58;;;;;;;4.60;4.00;;;23.90;99.90;;;;;;4957052;28;20322;-70
2022/09/07 00:50:32;;;;;;;5.13;4.00;;;23.90;99.90;;;;;;4958747;28;21042;-70
2022/09/07 00:53:09;;;;;;;4.67;3.67;;;23.90;99.90;;;;;;4954991;28;20445;-71
2022/09/07 00:55:37;;;;;;;6.73;3.50;;;23.90;99.90;;;;;;4957837;28;20470;-70
2022/09/07 00:58:04;;;;;;;6.83;3.70;;;23.90;99.90;;;;;;4954916;28;20439;-71
2022/09/07 01:00:30;;;;;;;4.70;4.20;;;23.90;99.90;;;;;;4956890;28;20856;-70
2022/09/07 01:02:58;;;;;;;5.90;3.57;;;23.90;99.90;;;;;;4954002;28;20881;-70
2022/09/07 01:05:33;;;;;;;6.10;3.53;;;23.90;99.90;;;;;;4955230;28;20883;-71
2022/09/07 01:07:59;;;;;;;4.80;3.70;;;23.90;99.90;;;;;;4955059;28;20839;-70
2022/09/07 01:10:29;;;;;;;3.80;3.00;;;23.90;99.90;;;;;;4957588;28;20453;-70
2022/09/07 01:12:55;;;;;;;5.60;3.40;;;23.80;99.90;;;;;;4953707;28;20281;-70
2022/09/07 01:15:27;;;;;;;4.17;2.90;;;23.80;99.90;;;;;;4953472;28;20477;-70
2022/09/07 01:18:20;;;;;;;5.17;3.33;;;23.80;99.90;;;;;;4960374;28;20229;-71
2022/09/07 01:21:04;;;;;;;5.93;3.43;;;23.60;99.90;;;;;;4957973;28;20784;-71
2022/09/07 01:23:55;;;;;;;4.40;4.00;;;23.60;99.90;;;;;;4955224;28;20835;-70
2022/09/07 01:26:50;;;;;;;6.30;3.57;;;23.60;99.90;;;;;;4957298;28;20624;-70
2022/09/07 01:29:25;;;;;;;3.50;3.13;;;23.60;99.90;;;;;;4955132;28;20496;-70
2022/09/07 01:32:04;;;;;;;4.83;3.10;;;23.60;99.90;;;;;;4956324;28;20808;-70
2022/09/07 01:34:31;;;;;;;3.67;3.20;;;23.60;99.90;;;;;;4936889;28;20483;-70
2022/09/07 01:37:21;;;;;;;4.90;3.17;;;23.40;99.90;;;;;;4955395;28;20465;-69
2022/09/07 01:39:57;;;;;;;4.87;3.27;;;23.40;99.90;;;;;;4955898;28;20443;-70
2022/09/07 01:42:30;;;;;;;6.80;2.90;;;23.20;99.90;;;;;;4956972;28;21090;-70
2022/09/07 01:44:59;;;;;;;4.03;2.80;;;23.20;99.90;;;;;;4956311;28;20463;-70
2022/09/07 01:47:31;;;;;;;3.07;2.40;;;23.10;99.90;;;;;;4955734;28;20553;-70
2022/09/07 01:50:19;;;;;;;3.57;2.97;;;23.00;99.90;;;;;;4954114;28;20453;-69
2022/09/07 01:53:14;;;;;;;3.13;2.80;;;23.10;99.90;;;;;;4955509;28;20437;-70
2022/09/07 01:55:51;;;;;;;4.97;3.10;;;23.10;99.90;;;;;;4955321;28;20445;-70
2022/09/07 01:58:25;;;;;;;4.33;3.20;;;23.10;99.90;;;;;;4954872;28;20442;-70
2022/09/07 02:01:08;;;;;;;4.40;2.60;;;23.20;99.90;;;;;;4958395;28;20442;-70
2022/09/07 02:03:47;;;;;;;12.17;3.23;;;23.20;99.90;;;;;;4953000;28;20462;-70
2022/09/07 02:06:32;;;;;;;4.83;2.87;;;23.20;99.90;;;;;;4955479;28;20470;-70
2022/09/07 02:09:03;;;;;;;7.33;3.47;;;23.10;99.90;;;;;;4955803;28;20442;-70
2022/09/07 02:11:45;;;;;;;5.90;3.87;;;23.00;99.90;;;;;;4952507;28;20461;-70
2022/09/07 02:14:21;;;;;;;7.33;3.87;;;23.00;99.90;;;;;;4957622;28;20557;-70
2022/09/07 02:17:07;;;;;;;4.80;3.80;;;23.00;99.90;;;;;;4957560;28;20584;-70
2022/09/07 02:19:39;;;;;;;7.40;4.10;;;23.00;99.90;;;;;;4959387;28;20442;-70
2022/09/07 02:22:10;;;;;;;9.23;4.23;;;22.90;99.90;;;;;;4961927;28;20448;-69
2022/09/07 02:24:40;;;;;;;10.83;4.30;;;23.00;99.90;;;;;;4958527;28;20915;-69
2022/09/07 02:27:32;;;;;;;11.73;4.10;;;23.00;99.90;;;;;;4959801;28;20489;-69
2022/09/07 02:29:58;;;;;;;5.63;3.73;;;23.00;99.90;;;;;;4962774;28;20441;-69
2022/09/07 02:32:24;;;;;;;10.30;4.03;;;22.90;99.90;;;;;;4956656;28;20461;-69
2022/09/07 02:34:49;;;;;;;4.80;4.07;;;22.90;99.90;;;;;;4956046;28;20898;-69
2022/09/07 02:37:16;;;;;;;6.70;3.87;;;23.00;99.90;;;;;;4960067;28;20192;-69
2022/09/07 02:39:42;;;;;;;5.60;4.00;;;22.90;99.90;;;;;;4959917;28;20579;-69
2022/09/07 02:42:08;;;;;;;7.30;4.17;;;22.90;99.90;;;;;;4960139;28;20433;-69
2022/09/07 02:44:37;;;;;;;7.23;4.20;;;22.90;99.90;;;;;;4958712;28;20257;-69
2022/09/07 02:47:10;;;;;;;5.07;4.20;;;23.00;99.90;;;;;;4959165;28;20482;-70
2022/09/07 02:50:03;;;;;;;4.70;4.20;;;23.00;99.90;;;;;;4961289;28;20478;-69
2022/09/07 02:52:28;;;;;;;5.20;4.27;;;22.90;99.90;;;;;;4960585;28;20534;-69
2022/09/07 02:55:12;;;;;;;8.53;4.07;;;22.90;99.90;;;;;;4957339;28;20561;-69
2022/09/07 02:57:58;;;;;;;5.27;3.80;;;22.70;99.90;;;;;;4958662;28;20194;-70
2022/09/07 03:00:25;;;;;;;5.97;3.13;;;22.70;99.90;;;;;;4959204;28;20450;-69
2022/09/07 03:03:27;;;;;;;4.93;3.83;;;22.70;99.90;;;;;;4944090;28;20472;-69
2022/09/07 03:05:59;;;;;;;7.83;3.77;;;22.60;99.90;;;;;;4960350;28;20911;-69
2022/09/07 03:08:48;;;;;;;8.97;3.40;;;22.70;99.90;;;;;;4958213;28;20452;-69
2022/09/07 03:11:14;;;;;;;4.80;3.90;;;22.70;99.90;;;;;;4955570;28;20486;-69
2022/09/07 03:13:40;;;;;;;11.80;3.80;;;22.80;99.90;;;;;;4959512;28;20476;-69
2022/09/07 03:16:05;;;;;;;4.70;3.60;;;22.60;99.90;;;;;;4958657;28;20872;-69
2022/09/07 03:18:31;;;;;;;4.00;3.47;;;22.50;99.90;;;;;;4960132;28;20193;-68
2022/09/07 03:20:57;;;;;;;11.37;4.00;;;22.50;99.90;;;;;;4956152;28;20205;-68
2022/09/07 03:23:22;;;;;;;5.70;3.40;;;22.50;99.90;;;;;;4958011;28;20767;-69
2022/09/07 03:25:48;;;;;;;4.87;3.20;;;22.50;99.90;;;;;;4955456;28;20670;-70
2022/09/07 03:28:15;;;;;;;4.03;3.20;;;22.50;99.90;;;;;;4957572;28;20201;-69
2022/09/07 03:30:42;;;;;;;7.80;2.97;;;22.50;99.90;;;;;;4960017;28;20442;-70
2022/09/07 03:33:08;;;;;;;6.80;4.30;;;22.50;99.90;;;;;;4955706;28;20443;-69
2022/09/07 03:35:34;;;;;;;6.43;4.17;;;22.50;99.90;;;;;;4958153;28;21012;-69
2022/09/07 03:38:00;;;;;;;6.10;3.23;;;22.50;99.90;;;;;;4961121;28;20447;-69
2022/09/07 03:40:26;;;;;;;4.07;2.90;;;22.50;99.90;;;;;;4958292;28;20221;-69
2022/09/07 03:42:52;;;;;;;8.53;4.10;;;22.50;99.90;;;;;;4956311;28;20966;-69
2022/09/07 03:45:18;;;;;;;6.50;3.40;;;22.60;99.90;;;;;;4961127;28;20477;-69
2022/09/07 03:47:44;;;;;;;4.57;3.10;;;22.60;99.90;;;;;;4957518;28;20728;-69
2022/09/07 03:50:09;;;;;;;2.87;2.57;;;22.60;99.90;;;;;;4955294;28;20544;-69
2022/09/07 03:52:36;;;;;;;7.70;3.90;;;22.70;99.90;;;;;;4958244;28;20681;-70
2022/09/07 03:55:02;;;;;;;6.27;3.57;;;22.70;99.90;;;;;;4957027;28;20202;-69
2022/09/07 03:57:27;;;;;;;5.70;3.53;;;22.60;99.90;;;;;;4956636;28;20864;-69
2022/09/07 03:59:53;;;;;;;4.30;3.23;;;22.60;99.90;;;;;;4957973;28;20442;-69
2022/09/07 04:02:19;;;;;;;6.13;2.97;;;22.60;99.90;;;;;;4956532;28;20226;-70
2022/09/07 04:04:47;;;;;;;4.90;3.60;;;22.50;99.90;;;;;;4956239;28;20656;-70
2022/09/07 04:07:14;;;;;;;5.73;3.30;;;22.60;99.90;;;;;;4959146;28;20237;-70
2022/09/07 04:09:40;;;;;;;4.60;3.20;;;22.50;99.90;;;;;;4959362;28;20536;-71
2022/09/07 04:12:06;;;;;;;4.47;3.30;;;22.50;99.90;;;;;;4958183;28;20428;-71
2022/09/07 04:14:32;;;;;;;4.63;3.27;;;22.50;99.90;;;;;;4955610;28;20532;-69
2022/09/07 04:16:57;;;;;;;7.10;3.10;;;22.40;99.90;;;;;;4955923;28;20449;-69
2022/09/07 04:19:23;;;;;;;6.30;3.30;;;22.50;99.90;;;;;;4956552;28;20190;-70
2022/09/07 04:21:49;;;;;;;7.40;3.40;;;22.40;99.90;;;;;;4957061;28;20657;-70
2022/09/07 04:24:16;;;;;;;6.97;3.53;;;22.40;99.90;;;;;;4955359;28;20744;-70
2022/09/07 04:26:42;;;;;;;6.57;3.60;;;22.40;99.90;;;;;;4958418;28;20218;-70
2022/09/07 04:29:09;;;;;;;5.97;3.33;;;22.40;99.90;;;;;;4957289;28;20447;-70
2022/09/07 04:31:35;;;;;;;5.40;3.43;;;22.40;99.90;;;;;;4958753;28;20498;-70
2022/09/07 04:34:02;;;;;;;6.23;3.27;;;22.40;99.90;;;;;;4955883;28;20890;-71
2022/09/07 04:36:28;;;;;;;4.77;3.33;;;22.40;99.90;;;;;;4952759;28;20442;-71
2022/09/07 04:38:58;;;;;;;5.47;3.50;;;22.30;99.90;;;;;;4928772;28;20533;-70
2022/09/07 04:41:26;;;;;;;4.97;3.47;;;22.20;99.90;;;;;;4958590;28;20442;-70
2022/09/07 04:44:00;;;;;;;3.57;3.17;;;22.20;99.90;;;;;;4955711;28;20520;-70
2022/09/07 04:46:32;;;;;;;6.23;4.00;;;22.20;99.90;;;;;;4957696;28;20469;-70
2022/09/07 04:49:00;;;;;;;7.30;3.10;;;22.20;99.90;;;;;;4958471;28;20437;-70
2022/09/07 04:51:28;;;;;;;5.97;3.60;;;22.20;99.90;;;;;;4956862;28;20454;-68
2022/09/07 04:53:56;;;;;;;4.37;3.17;;;22.20;99.90;;;;;;4958621;28;20508;-70
2022/09/07 04:56:22;;;;;;;4.37;3.40;;;22.20;99.90;;;;;;4954789;28;20479;-68
2022/09/07 04:58:48;;;;;;;5.53;3.27;;;22.20;99.90;;;;;;4959536;28;20829;-68
2022/09/07 05:01:20;;;;;;;5.40;3.70;;;22.20;99.90;;;;;;4953768;28;20457;-69
2022/09/07 05:03:46;;;;;;;8.67;3.83;;;22.10;99.90;;;;;;4957440;28;21036;-68
2022/09/07 05:06:13;;;;;;;8.30;4.40;;;22.10;99.90;;;;;;4951076;28;20561;-68
2022/09/07 05:08:40;;;;;;;6.87;4.40;;;22.00;99.90;;;;;;4957794;28;20456;-69
2022/09/07 05:11:07;;;;;;;5.90;3.70;;;22.10;99.90;;;;;;4953882;28;20439;-69
2022/09/07 05:13:33;;;;;;;6.30;3.53;;;22.00;99.90;;;;;;4957502;28;20473;-68
2022/09/07 05:16:00;;;;;;;7.60;3.83;;;22.00;99.90;;;;;;4956824;28;20469;-69
2022/09/07 05:18:26;;;;;;;5.23;3.77;;;21.90;99.90;;;;;;4954870;28;20191;-69
2022/09/07 05:20:52;;;;;;;4.90;4.00;;;22.00;99.90;;;;;;4955512;28;20538;-68
2022/09/07 05:23:17;;;;;;;5.63;4.07;;;22.00;99.90;;;;;;4954248;28;20487;-69
2022/09/07 05:25:44;;;;;;;8.57;4.37;;;21.90;99.90;;;;;;4952360;28;20643;-69
2022/09/07 05:28:11;;;;;;;5.57;4.10;;;21.90;99.90;;;;;;4956889;28;20312;-68
2022/09/07 05:30:37;;;;;;;8.50;4.17;;;21.80;99.90;;;;;;4953080;28;20442;-69
2022/09/07 05:33:02;;;;;;;8.53;4.27;;;21.70;99.90;;;;;;4952940;28;20441;-68
2022/09/07 05:35:29;;;;;;;6.40;4.43;;;21.80;99.90;;;;;;4951684;28;20451;-68
2022/09/07 05:37:54;;;;;;;5.73;3.70;;;21.80;99.90;;;;;;4949444;28;20253;-68
2022/09/07 05:40:21;;;;;;;5.50;3.63;;;21.90;99.90;;;;;;4948255;28;20827;-68
2022/09/07 05:42:47;;;;;;;5.70;4.03;;;21.80;99.90;;;;;;4956392;28;20221;-68
2022/09/07 05:45:16;;;;;;;5.83;3.90;;;21.80;99.90;;;;;;4952438;28;20454;-66
2022/09/07 05:47:48;;;;;;;8.00;3.93;;;21.70;99.90;;;;;;4959426;28;20217;-68
2022/09/07 05:50:13;;;;;;;5.17;3.97;;;21.70;99.90;;;;;;4960994;28;20472;-68
2022/09/07 05:52:39;;;;;;;7.67;3.70;;;21.70;99.90;;;;;;4959901;28;20466;-70
2022/09/07 05:55:05;;;;;;;9.37;4.23;;;21.70;99.90;;;;;;4957138;28;20587;-69
2022/09/07 05:57:33;;;;;;;4.67;3.60;;;21.60;99.90;;;;;;4960701;28;20193;-69
2022/09/07 05:59:59;;;;;;;6.00;3.73;;;21.60;99.90;;;;;;4958509;28;20221;-69
2022/09/07 06:02:24;;;;;;;5.60;3.53;;;21.60;99.90;;;;;;4960828;28;20442;-69
2022/09/07 06:04:50;;;;;;;7.40;4.50;;;21.60;99.90;;;;;;4960150;28;20207;-69
2022/09/07 06:07:16;;;;;;;8.93;3.73;;;21.70;99.90;;;;;;4955250;28;20301;-69
2022/09/07 06:09:41;;;;;;;6.37;3.80;;;21.70;99.90;;;;;;4959363;28;20213;-69
2022/09/07 06:12:07;;;;;;;6.23;4.10;;;21.70;99.90;;;;;;4957272;28;20183;-69
2022/09/07 06:14:32;;;;;;;5.20;3.60;;;21.60;99.90;;;;;;4957145;28;20700;-68
2022/09/07 06:16:59;;;;;;;7.53;4.47;;;21.60;99.90;;;;;;4955895;28;20218;-68
2022/09/07 06:19:24;;;;;;;9.90;3.93;;;21.60;99.90;;;;;;4955741;28;20543;-68
2022/09/07 06:21:50;;;;;;;6.40;4.10;;;21.70;99.90;;;;;;4956048;28;20456;-68
2022/09/07 06:24:15;;;;;;;6.03;3.90;;;21.70;99.90;;;;;;4962247;28;20210;-68
2022/09/07 06:26:41;;;;;;;9.30;4.00;;;21.70;99.90;;;;;;4959373;28;20210;-69
2022/09/07 06:29:08;;;;;;;10.90;3.70;;;21.70;99.90;;;;;;4957101;28;20233;-70
2022/09/07 06:31:34;;;;;;;7.87;3.90;;;21.80;99.90;;;;;;4957493;28;20186;-70
2022/09/07 06:33:59;;;;;;;8.60;4.00;;;21.70;99.90;;;;;;4957452;28;20466;-70
2022/09/07 06:36:26;;;;;;;8.70;4.80;;;21.70;99.90;;;;;;4963375;28;20190;-69
2022/09/07 06:38:57;;;;;;;6.60;4.73;;;21.70;99.90;;;;;;4960131;28;20191;-69
2022/09/07 06:41:28;;;;;;;5.93;4.10;;;21.70;99.90;;;;;;4960509;28;20449;-65
2022/09/07 06:43:55;;;;;;;6.57;3.70;;;21.80;99.90;;;;;;4955646;28;20826;-66
2022/09/07 06:46:22;;;;;;;6.43;3.80;;;21.70;99.90;;;;;;4956722;28;20469;-66
2022/09/07 06:48:51;;;;;;;7.37;4.90;;;21.80;99.90;;;;;;4962160;28;20467;-66
2022/09/07 06:51:18;;;;;;;6.10;4.00;;;21.90;99.90;;;;;;4944060;28;20442;-66
2022/09/07 06:53:47;;;;;;;7.50;4.20;;;22.10;99.90;;;;;;4959866;28;20521;-66
2022/09/07 06:56:14;;;;;;;5.70;3.93;;;22.10;99.90;;;;;;4958748;28;20438;-66
2022/09/07 06:58:40;;;;;;;9.10;3.53;;;22.20;99.90;;;;;;4959100;28;20450;-67
2022/09/07 07:01:19;;;;;;;6.07;3.57;;;22.30;99.90;;;;;;4959641;28;20441;-67
2022/09/07 07:03:45;;;;;;;5.73;3.57;;;22.20;99.90;;;;;;4961325;28;20446;-68
2022/09/07 07:06:11;;;;;;;4.40;3.80;;;22.40;99.90;;;;;;4958696;28;20422;-67
2022/09/07 07:08:37;;;;;;;11.93;4.20;;;22.50;99.90;;;;;;4959119;28;20441;-67
2022/09/07 07:11:09;;;;;;;6.50;3.30;;;22.50;99.90;;;;;;4956444;28;20821;-66
2022/09/07 07:13:35;;;;;;;8.30;3.90;;;22.50;99.90;;;;;;4956055;28;20219;-67
2022/09/07 07:16:09;;;;;;;4.63;3.33;;;22.60;99.90;;;;;;4958480;28;20434;-66
2022/09/07 07:18:36;;;;;;;7.43;3.53;;;22.60;99.90;;;;;;4962599;28;20439;-66
2022/09/07 07:21:08;;;;;;;3.80;2.80;;;22.60;99.90;;;;;;4959606;28;20792;-68
2022/09/07 07:23:39;;;;;;;6.53;3.67;;;22.70;99.90;;;;;;4960552;28;20954;-69
2022/09/07 07:26:13;;;;;;;9.10;3.30;;;22.80;99.90;;;;;;4957447;28;20421;-68
2022/09/07 07:28:48;;;;;;;6.93;3.87;;;22.80;99.90;;;;;;4961857;28;20569;-69
2022/09/07 07:31:18;;;;;;;4.07;3.17;;;22.90;99.90;;;;;;4957025;28;20429;-70
2022/09/07 07:33:46;;;;;;;6.10;3.00;;;22.90;99.90;;;;;;4962320;28;20454;-70
2022/09/07 07:36:14;;;;;;;5.90;3.73;;;23.00;99.90;;;;;;4946487;28;20442;-70
2022/09/07 07:38:41;;;;;;;5.40;3.70;;;23.00;99.90;;;;;;4959450;28;20422;-71
2022/09/07 07:41:07;;;;;;;8.73;3.60;;;23.00;99.90;;;;;;4960930;28;20410;-71
2022/09/07 07:43:33;;;;;;;8.30;3.63;;;23.20;99.90;;;;;;4962279;28;20445;-71
2022/09/07 07:45:59;;;;;;;9.17;3.50;;;23.20;99.90;;;;;;4956042;28;20190;-71
2022/09/07 07:48:25;;;;;;;8.37;4.10;;;23.20;99.90;;;;;;4958049;28;20422;-71
2022/09/07 07:50:58;;;;;;;7.33;3.37;;;23.20;99.90;;;;;;4962551;28;20185;-71
2022/09/07 07:53:25;;;;;;;6.20;3.20;;;23.30;99.90;;;;;;4956604;28;20796;-71
2022/09/07 07:55:51;;;;;;;5.33;3.50;;;23.30;99.90;;;;;;4958319;28;20419;-71
2022/09/07 07:58:17;;;;;;;9.63;4.17;;;23.30;99.90;;;;;;4961975;28;20442;-71
2022/09/07 08:00:43;;;;;;;6.03;3.50;;;23.30;99.90;;;;;;4959794;28;20194;-71
2022/09/07 08:03:08;;;;;;;6.77;3.60;;;23.40;99.90;;;;;;4959551;28;20426;-71
2022/09/07 08:05:35;;;;;;;7.07;3.47;;;23.50;99.90;;;;;;4957803;28;20865;-71
2022/09/07 08:08:01;;;;;;;5.67;3.50;;;23.50;99.90;;;;;;4955798;28;20221;-71
2022/09/07 08:10:28;;;;;;;7.40;3.33;;;23.60;99.90;;;;;;4957622;28;20422;-70
2022/09/07 08:12:54;;;;;;;7.53;3.83;;;23.70;99.90;;;;;;4956280;28;20433;-70
2022/09/07 08:15:20;;;;;;;6.83;3.63;;;23.70;99.90;;;;;;4958788;28;20907;-70
2022/09/07 08:17:49;;;;;;;6.20;3.53;;;23.60;99.90;;;;;;4947995;28;20437;-70
2022/09/07 08:20:15;;;;;;;6.67;3.70;;;23.70;99.90;;;;;;4958478;28;20205;-70
2022/09/07 08:22:41;;;;;;;10.80;5.23;;;23.70;99.90;;;;;;4956112;28;20537;-71
2022/09/07 08:25:07;;;;;;;7.20;3.30;;;23.80;99.90;;;;;;4956362;28;20563;-70
2022/09/07 08:27:33;;;;;;;4.83;3.47;;;23.80;99.90;;;;;;4957544;28;20461;-70
2022/09/07 08:29:59;;;;;;;5.90;2.90;;;23.90;99.90;;;;;;4963804;28;20480;-71
2022/09/07 08:32:27;;;;;;;7.53;4.13;;;24.00;99.90;;;;;;4957806;28;20911;-71
2022/09/07 08:34:54;;;;;;;4.33;2.80;;;24.10;99.90;;;;;;4952746;28;20218;-70
2022/09/07 08:37:19;;;;;;;6.93;3.40;;;24.10;99.90;;;;;;4959983;28;20426;-70
2022/09/07 08:39:45;;;;;;;6.33;3.20;;;24.20;99.90;;;;;;4962404;28;20807;-70
2022/09/07 08:42:33;;;;;;;6.00;3.37;;;24.30;99.90;;;;;;4964569;28;20190;-70
2022/09/07 08:44:59;;;;;;;7.00;3.60;;;24.40;99.90;;;;;;4956848;28;20289;-71
2022/09/07 08:47:46;;;;;;;4.47;3.90;;;24.40;99.90;;;;;;4961481;28;20604;-71
2022/09/07 08:50:15;;;;;;;7.93;3.80;;;24.40;99.90;;;;;;4960470;28;20190;-71
2022/09/07 08:52:45;;;;;;;5.43;3.20;;;24.40;99.90;;;;;;4958238;28;20431;-70
2022/09/07 08:55:35;;;;;;;5.10;3.40;;;24.40;99.90;;;;;;4961539;28;20450;-71
2022/09/07 08:58:26;;;;;;;4.23;3.50;;;24.50;99.90;;;;;;4958024;28;20817;-71
2022/09/07 09:00:52;;;;;;;5.10;3.40;;;24.60;99.90;;;;;;4958748;28;20485;-71
2022/09/07 09:03:30;;;;;;;5.60;3.57;;;24.60;99.90;;;;;;4957432;28;20943;-71
2022/09/07 09:06:21;;;;;;;13.80;3.60;;;24.70;99.90;;;;;;4961555;28;20208;-71
2022/09/07 09:09:02;;;;;;;7.90;5.60;;;24.70;99.90;;;;;;4957003;28;20423;-71
2022/09/07 09:11:43;;;;;;;7.40;3.50;;;24.70;99.90;;;;;;4955147;28;20601;-71
2022/09/07 09:14:42;;;;;;;7.63;3.77;;;24.70;99.90;;;;;;4956024;28;20892;-71
2022/09/07 09:17:15;;;;;;;11.03;3.97;;;24.60;99.90;;;;;;4958383;28;20470;-70
2022/09/07 09:20:13;;;;;;;5.20;3.40;;;24.70;99.90;;;;;;4957487;28;20517;-71
2022/09/07 09:22:38;;;;;;;7.17;3.53;;;24.80;99.90;;;;;;4945089;28;20972;-71
2022/09/07 09:25:24;;;;;;;4.10;3.17;;;24.90;99.90;;;;;;4954688;28;20548;-71
2022/09/07 09:27:50;;;;;;;7.77;3.73;;;24.90;99.90;;;;;;4958200;28;20219;-71
2022/09/07 09:30:18;;;;;;;6.27;4.40;;;25.00;99.90;;;;;;4957688;28;20435;-71
2022/09/07 09:32:46;;;;;;;8.43;4.30;;;25.00;99.90;;;;;;4953942;28;20189;-71
2022/09/07 09:35:13;;;;;;;6.57;3.87;;;25.10;99.90;;;;;;4957546;28;20457;-71
2022/09/07 09:37:40;;;;;;;5.67;3.13;;;25.10;99.90;;;;;;4957369;28;20433;-71
2022/09/07 09:40:21;;;;;;;11.37;5.10;;;25.20;99.90;;;;;;4957889;28;20490;-71
2022/09/07 09:42:56;;;;;;;7.77;3.80;;;25.20;99.90;;;;;;4957053;28;20443;-71
2022/09/07 09:45:27;;;;;;;6.70;3.83;;;25.20;99.90;;;;;;4956096;28;20440;-71
2022/09/07 09:47:53;;;;;;;7.03;3.57;;;25.20;99.90;;;;;;4954348;28;20475;-71
2022/09/07 09:50:30;;;;;;;7.17;3.63;;;25.20;99.90;;;;;;4956913;28;20450;-71
2022/09/07 09:52:57;;;;;;;10.53;4.00;;;25.30;99.90;;;;;;4954805;28;20434;-71
2022/09/07 09:55:25;;;;;;;5.37;3.40;;;25.40;99.90;;;;;;4955326;28;20521;-71
2022/09/07 09:57:57;;;;;;;7.10;3.30;;;25.40;99.90;;;;;;4956482;28;20498;-71
2022/09/07 10:00:23;;;;;;;4.23;3.23;;;25.40;99.90;;;;;;4960343;28;20565;-71
2022/09/07 10:03:04;;;;;;;9.03;3.47;;;25.40;99.90;;;;;;4959589;28;21056;-71
2022/09/07 10:05:36;;;;;;;6.60;3.83;;;25.50;99.90;;;;;;4956112;28;20415;-71
2022/09/07 10:08:14;;;;;;;6.83;3.83;;;25.60;99.90;;;;;;4956102;28;20466;-71
2022/09/07 10:10:52;;;;;;;10.20;3.67;;;25.70;99.90;;;;;;4955486;28;20434;-70
2022/09/07 10:13:33;;;;;;;6.03;3.80;;;25.60;99.90;;;;;;4957516;28;20424;-70
2022/09/07 10:16:04;;;;;;;9.00;3.50;;;25.80;99.90;;;;;;4957409;28;20442;-70
2022/09/07 10:18:34;;;;;;;5.07;3.20;;;25.80;99.90;;;;;;4958880;28;20406;-71
2022/09/07 10:21:20;;;;;;;5.53;3.73;;;25.80;99.90;;;;;;4954145;28;20862;-71
2022/09/07 10:23:46;;;;;;;4.80;3.70;;;25.90;99.90;;;;;;4959241;28;20867;-70
2022/09/07 10:26:32;;;;;;;5.33;3.60;;;26.00;99.90;;;;;;4953663;28;20442;-71
2022/09/07 10:29:10;;;;;;;4.03;3.40;;;26.10;99.90;;;;;;4937179;28;20927;-70
2022/09/07 10:31:48;;;;;;;5.97;3.83;;;26.20;99.90;;;;;;4958928;28;20504;-70
2022/09/07 10:34:21;;;;;;;6.40;3.50;;;26.20;99.90;;;;;;4955908;28;20457;-70
2022/09/07 10:37:02;;;;;;;7.07;3.60;;;26.20;99.90;;;;;;4962022;28;20441;-70
2022/09/07 10:39:53;;;;;;;7.20;4.20;;;26.40;99.90;;;;;;4963881;28;20428;-71
2022/09/07 10:42:29;;;;;;;5.33;3.67;;;26.50;99.90;;;;;;4963265;28;20456;-71
2022/09/07 10:45:10;;;;;;;4.63;4.03;;;26.50;99.90;;;;;;4958637;28;20484;-71
2022/09/07 10:47:49;;;;;;;8.50;3.77;;;26.60;99.90;;;;;;4959502;28;20986;-70
2022/09/07 10:50:44;;;;;;;6.00;3.87;;;26.60;99.90;;;;;;4957763;28;20427;-71
2022/09/07 10:53:17;;;;;;;5.40;3.87;;;26.70;99.90;;;;;;4957685;28;20445;-70
2022/09/07 10:56:02;;;;;;;4.60;3.80;;;26.70;99.90;;;;;;4959043;28;20837;-70
2022/09/07 10:58:44;;;;;;;4.50;3.27;;;26.70;99.90;;;;;;4963898;28;20594;-70
2022/09/07 11:01:21;;;;;;;6.57;3.90;;;26.70;99.90;;;;;;4955123;28;20526;-71
2022/09/07 11:04:13;;;;;;;9.20;3.70;;;26.70;99.90;;;;;;4956606;28;20579;-70
2022/09/07 11:06:47;;;;;;;7.60;3.03;;;26.90;99.90;;;;;;4961475;28;20477;-71
2022/09/07 11:09:33;;;;;;;4.40;3.67;;;26.90;99.90;;;;;;4939536;28;20458;-71
2022/09/07 11:12:07;;;;;;;7.60;3.53;;;26.90;99.90;;;;;;4956846;28;20505;-70
2022/09/07 11:14:53;;;;;;;6.10;3.90;;;26.90;99.90;;;;;;4960701;28;20527;-71
2022/09/07 11:17:23;;;;;;;5.37;3.20;;;27.00;99.90;;;;;;4959113;28;20897;-67
2022/09/07 11:20:16;;;;;;;6.97;3.40;;;27.00;99.90;;;;;;4959195;28;20445;-68
2022/09/07 11:22:49;;;;;;;4.50;3.73;;;27.00;99.90;;;;;;4958767;28;20521;-69
2022/09/07 11:25:22;;;;;;;4.93;3.70;;;27.10;99.90;;;;;;4946727;28;20474;-70
2022/09/07 11:27:54;;;;;;;6.23;3.30;;;27.20;99.90;;;;;;4959577;28;20508;-70
2022/09/07 11:30:24;;;;;;;7.77;3.27;;;27.30;99.90;;;;;;4957987;28;20514;-70
2022/09/07 11:32:57;;;;;;;4.00;3.60;;;27.30;99.90;;;;;;4959051;28;20442;-70
2022/09/07 11:35:38;;;;;;;4.73;3.60;;;27.40;99.90;;;;;;4957212;28;20438;-70
2022/09/07 11:38:13;;;;;;;3.90;3.20;;;27.40;99.90;;;;;;4959339;28;20512;-70
2022/09/07 11:40:49;;;;;;;4.73;3.60;;;27.40;99.90;;;;;;4958694;28;20919;-70
2022/09/07 11:43:43;;;;;;;5.10;3.20;;;27.50;99.90;;;;;;4958482;28;20445;-70
2022/09/07 11:46:27;;;;;;;6.87;3.13;;;27.50;99.90;;;;;;4957113;28;20441;-70
2022/09/07 11:48:56;;;;;;;3.67;3.30;;;27.50;99.90;;;;;;4955097;28;20465;-70
2022/09/07 11:51:25;;;;;;;4.57;3.37;;;27.60;99.90;;;;;;4959181;28;20446;-70
2022/09/07 11:54:00;;;;;;;7.70;3.77;;;27.60;99.90;;;;;;4958138;28;20824;-70
2022/09/07 11:56:34;;;;;;;9.30;3.47;;;27.80;99.90;;;;;;4957464;28;20516;-70
2022/09/07 11:59:06;;;;;;;3.93;3.13;;;28.00;99.90;;;;;;4951776;28;20438;-70
2022/09/07 12:01:37;;;;;;;3.93;3.40;;;28.20;99.90;;;;;;4957767;28;20438;-71
2022/09/07 12:04:50;;;;;;;5.53;2.97;;;28.20;99.90;;;;;;4955559;28;20798;-70
2022/09/07 12:07:24;;;;;;;4.70;3.40;;;28.50;99.90;;;;;;4858280;28;20544;-70
2022/09/07 12:10:25;;;;;;;4.53;3.20;;;29.00;99.90;;;;;;4939832;28;21670;-71
2022/09/07 12:13:31;;;;;;;4.70;2.90;;;28.80;99.90;;;;;;4951361;28;20442;-70
2022/09/07 12:16:15;;;;;;;4.30;3.10;;;28.90;99.90;;;;;;4954149;28;20485;-70
2022/09/07 12:19:29;;;;;;;4.73;3.10;;;29.50;99.90;;;;;;4955992;28;20437;-71
2022/09/07 12:21:58;;;;;;;7.40;3.60;;;29.50;99.90;;;;;;4938668;28;20461;-70
2022/09/07 12:24:53;;;;;;;5.40;3.47;;;29.30;99.90;;;;;;4953689;28;20459;-69
2022/09/07 12:27:19;;;;;;;5.83;3.10;;;29.30;99.90;;;;;;4952403;28;20481;-69
2022/09/07 12:30:08;;;;;;;3.90;3.40;;;29.80;99.90;;;;;;4959486;28;20495;-65
2022/09/07 12:32:46;;;;;;;4.40;2.97;;;30.00;98.40;;;;;;4957742;28;20610;-66
2022/09/07 12:35:27;;;;;;;4.53;2.80;;;29.90;96.90;;;;;;4958277;28;20462;-66
2022/09/07 12:37:53;;;;;;;5.57;4.20;;;29.90;97.40;;;;;;4957118;28;20433;-68
2022/09/07 12:40:32;;;;;;;4.73;3.57;;;30.10;96.50;;;;;;4955512;28;20460;-68
2022/09/07 12:43:12;;;;;;;4.80;3.30;;;29.90;95.70;;;;;;4958006;28;20968;-68
2022/09/07 12:45:38;;;;;;;4.40;3.50;;;29.70;96.70;;;;;;4957125;28;20805;-68
2022/09/07 12:48:16;;;;;;;4.00;2.97;;;29.80;96.10;;;;;;4954170;28;20458;-67
2022/09/07 12:51:04;;;;;;;3.97;3.20;;;29.90;96.00;;;;;;4955704;28;20233;-67
2022/09/07 12:53:52;;;;;;;3.03;2.80;;;30.00;95.00;;;;;;4956028;28;20449;-68
2022/09/07 12:56:46;;;;;;;3.13;2.83;;;30.10;95.10;;;;;;4952019;28;20445;-66
2022/09/07 12:59:45;;;;;;;4.40;3.00;;;30.30;94.00;;;;;;4957514;28;20802;-67
2022/09/07 13:02:34;;;;;;;4.23;3.57;;;30.30;93.10;;;;;;4956421;28;20416;-67
2022/09/07 13:05:00;;;;;;;4.50;3.53;;;30.50;93.20;;;;;;4956874;28;20462;-67
2022/09/07 13:07:56;;;;;;;6.50;3.10;;;30.50;92.70;;;;;;4953597;28;20560;-67
2022/09/07 13:10:29;;;;;;;4.00;3.00;;;30.80;93.30;;;;;;4954615;28;20189;-67
2022/09/07 13:13:06;;;;;;;3.80;3.40;;;31.00;91.30;;;;;;4956881;28;20433;-67